South Shore, KY

12:44 AM EDT on November 01, 2014 (GMT -0400)
Thomas Hollow | Change Station
CLOSE
Current Station
Personal Weather Station
Location: Lucasville, OH
Elevation: 719 ft
Nearby Weather Stations

Elev 719 ft 38.89 °N, 82.97 °W | Updated 14 minutes ago

Mostly Cloudy
Mostly Cloudy
39.6 °F
Feels Like 40 °F
N
2.7
Wind Variable Wind from SSW
Gusts 4.5 mph

Today
High -- | Low -- °F
--% Chance of Precip.
Yesterday
High -- | Low -- °F
Precip. -- in
7:58 AM 6:31 PM
Waxing Gibbous, 62% visible
Pressure 29.92 in
Visibility 6.0 miles
Clouds Few 800 ft
Overcast 1700 ft
Windchill 40 °F
Dew Point 3 °F
Humidity 21%
Rainfall 0.04 in
Snow Depth Not available.
UV 0 out of 12
Pollen .10 out of 12
Air Quality Not available.
Flu Activity Not available.
METAR KHTS 010351Z 31006KT 6SM -RA BR FEW008 OVC017 03/02 A2991 RMK AO2 SLP130 P0001 T00280022

More Conditions Fewer Conditions

Pressure 29.92 in
Visibility 6.0 miles
Clouds Few 800 ft
Overcast 1700 ft
Windchill 40 °F
Dew Point 3 °F
Humidity 21%
Rainfall 0.04 in
Snow Depth Not available.
UV 0 out of 12
Pollen .10 out of 12
Air Quality Not available.
Flu Activity Not available.
METAR KHTS 010351Z 31006KT 6SM -RA BR FEW008 OVC017 03/02 A2991 RMK AO2 SLP130 P0001 T00280022

More Conditions Fewer Conditions

10-Day Weather Forecast

Almanac

Astronomy

Nov. 01, 2014 Rise Set
Actual Time
Civil Twilight
Nautical Twilight
Astronomical Twilight
Moon
Length of Visible Light
Length of Day
Tomorrow will be .
, % of the Moon is Illuminated

Today's Extremes

State Highs State Lows

Community

WunderPhotos

Upload Photos

1,766,854 photos uploaded!

WunderBlogs® & News

Nearby

Air Quality

  Air Quality AQ Index Pollutant
Not available.

Snow Depth

Station Depth Elevation

Earthquake Activity

City Distance Mag. Time & Date
Minimum magnitude displayed is 2.5.

Coastal Water Temperatures

Place Temperature

Nearby Weather Stations